Time;durP1;ratioP1;P1;durP2;ratioP2;P2;SDS_P1;SDS_P2;PMS_P1;PMS_P2;Temp;Humidity;BMP_temperature;BMP_pressure;BME280_temperature;BME280_humidity;BME280_pressure;Samples;Min_cycle;Max_cycle;Signal;HPM_P1;HPM_P2
2022/07/01 00:02:18;;;;;;;12.93;10.33;;;;;;;;;;5031650;28;20496;-53
2022/07/01 00:04:46;;;;;;;12.97;10.50;;;;;;;;;;5031616;28;20996;-53
2022/07/01 00:07:12;;;;;;;12.30;10.00;;;;;;;;;;5031718;28;20398;-53
2022/07/01 00:09:38;;;;;;;15.43;10.70;;;;;;;;;;5031623;28;20468;-53
2022/07/01 00:12:05;;;;;;;14.17;12.00;;;;;;;;;;5031520;28;20468;-53
2022/07/01 00:14:31;;;;;;;15.83;12.77;;;;;;;;;;5032271;28;20438;-53
2022/07/01 00:16:57;;;;;;;14.17;11.27;;;;;;;;;;5031508;28;20462;-53
2022/07/01 00:19:24;;;;;;;17.70;11.50;;;;;;;;;;5031602;28;20877;-53
2022/07/01 00:21:50;;;;;;;12.87;11.00;;;;;;;;;;5031118;28;20852;-53
2022/07/01 00:24:16;;;;;;;16.13;12.70;;;;;;;;;;5031216;28;20416;-53
2022/07/01 00:26:42;;;;;;;13.77;11.43;;;;;;;;;;5031684;28;20418;-53
2022/07/01 00:29:08;;;;;;;16.93;12.50;;;;;;;;;;5031467;28;20402;-53
2022/07/01 00:31:35;;;;;;;11.90;10.57;;;;;;;;;;5031042;28;20385;-53
2022/07/01 00:34:01;;;;;;;14.40;10.63;;;;;;;;;;5031321;28;20932;-53
2022/07/01 00:36:27;;;;;;;13.17;10.77;;;;;;;;;;5031240;28;20432;-53
2022/07/01 00:38:53;;;;;;;15.67;10.50;;;;;;;;;;5030785;28;20421;-53
2022/07/01 00:41:19;;;;;;;13.93;11.60;;;;;;;;;;5030907;28;20396;-53
2022/07/01 00:43:45;;;;;;;14.43;11.60;;;;;;;;;;5031124;28;20414;-53
2022/07/01 00:46:11;;;;;;;14.40;10.50;;;;;;;;;;5030940;28;20436;-53
2022/07/01 00:48:37;;;;;;;13.63;11.50;;;;;;;;;;5031207;28;20392;-53
2022/07/01 00:51:03;;;;;;;11.53;10.30;;;;;;;;;;5030906;28;20483;-53
2022/07/01 00:53:30;;;;;;;12.60;10.03;;;;;;;;;;5031330;28;20873;-53
2022/07/01 00:55:56;;;;;;;12.60;10.70;;;;;;;;;;5029666;28;20626;-53
2022/07/01 00:58:22;;;;;;;15.00;10.17;;;;;;;;;;5031176;28;20389;-53
2022/07/01 01:00:49;;;;;;;20.83;11.57;;;;;;;;;;5030482;28;20409;-53
2022/07/01 01:03:15;;;;;;;15.90;10.80;;;;;;;;;;5030309;28;20393;-53
2022/07/01 01:05:41;;;;;;;14.63;10.90;;;;;;;;;;5030965;28;20413;-53
2022/07/01 01:08:09;;;;;;;17.20;11.00;;;;;;;;;;5033516;28;20450;-53
2022/07/01 01:10:36;;;;;;;20.40;13.73;;;;;;;;;;5034181;28;20896;-53
2022/07/01 01:13:03;;;;;;;17.73;13.27;;;;;;;;;;5034195;28;20395;-53
2022/07/01 01:15:30;;;;;;;19.37;13.20;;;;;;;;;;5034312;28;20478;-53
2022/07/01 01:17:56;;;;;;;14.50;10.37;;;;;;;;;;5034256;28;20423;-53
2022/07/01 01:20:22;;;;;;;13.87;10.57;;;;;;;;;;5033829;28;20421;-52
2022/07/01 01:22:48;;;;;;;14.63;10.77;;;;;;;;;;5034259;28;20928;-53
2022/07/01 01:25:15;;;;;;;14.30;10.00;;;;;;;;;;5033995;28;20434;-53
2022/07/01 01:27:41;;;;;;;17.57;11.60;;;;;;;;;;5033965;28;20875;-53
2022/07/01 01:30:07;;;;;;;15.10;11.50;;;;;;;;;;5033888;28;20452;-53
2022/07/01 01:32:34;;;;;;;20.30;10.80;;;;;;;;;;5033851;28;20396;-53
2022/07/01 01:35:00;;;;;;;17.80;11.60;;;;;;;;;;5034131;28;20440;-52
2022/07/01 01:37:27;;;;;;;18.00;13.50;;;;;;;;;;5033286;28;20847;-52
2022/07/01 01:39:53;;;;;;;16.80;13.60;;;;;;;;;;5033380;28;20392;-53
2022/07/01 01:42:19;;;;;;;18.07;12.20;;;;;;;;;;5033466;28;20418;-53
2022/07/01 01:44:45;;;;;;;18.10;13.20;;;;;;;;;;5033854;28;20475;-53
2022/07/01 01:47:11;;;;;;;18.07;11.97;;;;;;;;;;5033804;28;20913;-53
2022/07/01 01:49:37;;;;;;;19.53;12.60;;;;;;;;;;5033826;28;20420;-53
2022/07/01 01:52:03;;;;;;;16.07;12.77;;;;;;;;;;5033452;28;20426;-52
2022/07/01 01:54:29;;;;;;;15.17;10.83;;;;;;;;;;5033335;28;20953;-53
2022/07/01 01:56:56;;;;;;;15.40;10.90;;;;;;;;;;5033109;28;20436;-52
2022/07/01 01:59:22;;;;;;;14.93;9.70;;;;;;;;;;5033685;28;20419;-53
2022/07/01 02:01:48;;;;;;;12.73;9.97;;;;;;;;;;5033356;28;20459;-53
2022/07/01 02:04:14;;;;;;;12.33;9.80;;;;;;;;;;5033822;28;20790;-53
2022/07/01 02:06:40;;;;;;;16.77;10.50;;;;;;;;;;5033469;28;20426;-53
2022/07/01 02:09:07;;;;;;;12.27;8.90;;;;;;;;;;5032992;28;20483;-53
2022/07/01 02:11:33;;;;;;;10.93;8.40;;;;;;;;;;5033170;28;20437;-52
2022/07/01 02:13:59;;;;;;;12.33;8.97;;;;;;;;;;5033061;28;20394;-53
2022/07/01 02:16:25;;;;;;;13.50;7.93;;;;;;;;;;5033166;28;20571;-53
2022/07/01 02:18:51;;;;;;;11.33;7.50;;;;;;;;;;5033406;28;20442;-52
2022/07/01 02:21:17;;;;;;;9.27;7.20;;;;;;;;;;5032912;28;20572;-52
2022/07/01 02:23:43;;;;;;;9.60;8.50;;;;;;;;;;5033008;28;20426;-52
2022/07/01 02:26:09;;;;;;;10.50;7.10;;;;;;;;;;5033081;28;20430;-52
2022/07/01 02:28:35;;;;;;;8.50;6.93;;;;;;;;;;5032960;28;20393;-51
2022/07/01 02:31:02;;;;;;;9.53;7.10;;;;;;;;;;5033002;28;20403;-51
2022/07/01 02:33:28;;;;;;;8.57;6.37;;;;;;;;;;5033015;28;20418;-53
2022/07/01 02:35:54;;;;;;;8.53;6.30;;;;;;;;;;5032469;28;20439;-53
2022/07/01 02:38:20;;;;;;;9.50;6.33;;;;;;;;;;5032557;28;22409;-52
2022/07/01 02:40:46;;;;;;;9.07;7.20;;;;;;;;;;5032542;28;20418;-53
2022/07/01 02:43:12;;;;;;;16.07;7.83;;;;;;;;;;5032336;28;20527;-53
2022/07/01 02:45:39;;;;;;;12.23;6.40;;;;;;;;;;5033032;28;20457;-52
2022/07/01 02:48:05;;;;;;;8.03;6.60;;;;;;;;;;5032356;28;20935;-53
2022/07/01 02:50:31;;;;;;;9.77;6.13;;;;;;;;;;5032342;28;20437;-52
2022/07/01 02:52:58;;;;;;;9.80;5.87;;;;;;;;;;5032511;28;20483;-52
2022/07/01 02:55:24;;;;;;;5.63;5.03;;;;;;;;;;5032367;28;20438;-52
2022/07/01 02:57:51;;;;;;;6.33;4.83;;;;;;;;;;5032430;28;20440;-53
2022/07/01 03:00:17;;;;;;;5.03;4.53;;;;;;;;;;5032181;28;20421;-52
2022/07/01 03:02:43;;;;;;;7.43;4.53;;;;;;;;;;5032157;28;20396;-53
2022/07/01 03:05:10;;;;;;;7.63;4.17;;;;;;;;;;5032332;28;20426;-52
2022/07/01 03:07:37;;;;;;;4.73;4.33;;;;;;;;;;5032517;28;20421;-52
2022/07/01 03:10:03;;;;;;;7.23;4.20;;;;;;;;;;5032417;28;20413;-52
2022/07/01 03:12:29;;;;;;;8.70;4.90;;;;;;;;;;5031868;28;20933;-53
2022/07/01 03:14:59;;;;;;;4.60;3.90;;;;;;;;;;5031701;28;20481;-54
2022/07/01 03:17:26;;;;;;;4.20;3.73;;;;;;;;;;5031999;28;20446;-54
2022/07/01 03:19:53;;;;;;;8.70;5.50;;;;;;;;;;5012473;28;20402;-52
2022/07/01 03:22:20;;;;;;;7.70;5.33;;;;;;;;;;5029591;28;20414;-53
2022/07/01 03:24:46;;;;;;;5.50;4.97;;;;;;;;;;5032217;28;20511;-52
2022/07/01 03:27:12;;;;;;;11.07;6.23;;;;;;;;;;5031969;28;20431;-52
2022/07/01 03:29:38;;;;;;;7.83;4.93;;;;;;;;;;5030970;28;20442;-53
2022/07/01 03:32:04;;;;;;;7.70;4.70;;;;;;;;;;5031554;28;20470;-52
2022/07/01 03:34:30;;;;;;;7.57;4.90;;;;;;;;;;5031928;28;20408;-53
2022/07/01 03:36:56;;;;;;;9.73;5.83;;;;;;;;;;5031998;28;20439;-52
2022/07/01 03:39:22;;;;;;;6.67;5.10;;;;;;;;;;5031910;28;20381;-52
2022/07/01 03:41:48;;;;;;;4.77;4.30;;;;;;;;;;5031286;28;20389;-57
2022/07/01 03:44:14;;;;;;;6.43;5.80;;;;;;;;;;5031710;28;20439;-52
2022/07/01 03:46:40;;;;;;;6.03;4.80;;;;;;;;;;5031817;28;20794;-52
2022/07/01 03:49:07;;;;;;;6.40;4.83;;;;;;;;;;5032009;28;20401;-52
2022/07/01 03:51:33;;;;;;;7.17;5.10;;;;;;;;;;5031512;28;20400;-52
2022/07/01 03:56:44;;;;;;;8.30;6.23;;;;;;;;;;5025506;28;20499;-52
2022/07/01 03:59:10;;;;;;;16.13;7.43;;;;;;;;;;5031323;28;20400;-52
2022/07/01 04:01:36;;;;;;;8.07;7.03;;;;;;;;;;5031250;28;20385;-52
2022/07/01 04:04:02;;;;;;;11.60;7.27;;;;;;;;;;5031694;28;20449;-52
2022/07/01 04:06:28;;;;;;;10.53;6.90;;;;;;;;;;5031504;28;20401;-52
2022/07/01 04:08:54;;;;;;;13.80;6.37;;;;;;;;;;5031613;28;20400;-52
2022/07/01 04:11:20;;;;;;;6.50;5.87;;;;;;;;;;5030894;28;20443;-53
2022/07/01 04:13:50;;;;;;;10.33;6.40;;;;;;;;;;5031625;28;20410;-52
2022/07/01 04:16:19;;;;;;;13.40;7.07;;;;;;;;;;5031009;28;20548;-52
2022/07/01 04:18:46;;;;;;;15.20;6.97;;;;;;;;;;5031364;28;20417;-52
2022/07/01 04:23:56;;;;;;;6.50;5.70;;;;;;;;;;5031758;28;20762;-53
2022/07/01 04:26:26;;;;;;;10.87;6.07;;;;;;;;;;5031814;28;20474;-52
2022/07/01 04:28:53;;;;;;;6.67;6.07;;;;;;;;;;5031520;28;20401;-53
2022/07/01 04:31:19;;;;;;;10.23;7.60;;;;;;;;;;5030859;28;20768;-52
2022/07/01 04:33:46;;;;;;;16.03;8.73;;;;;;;;;;5031023;28;20538;-52
2022/07/01 04:36:12;;;;;;;11.57;7.00;;;;;;;;;;5031249;28;20461;-52
2022/07/01 04:38:38;;;;;;;9.53;7.43;;;;;;;;;;5031029;28;20503;-52
2022/07/01 04:43:49;;;;;;;9.50;6.07;;;;;;;;;;5034819;28;20440;-52
2022/07/01 04:46:15;;;;;;;7.80;6.70;;;;;;;;;;5035003;28;20425;-52
2022/07/01 04:48:41;;;;;;;9.30;6.20;;;;;;;;;;5035126;28;20402;-52
2022/07/01 04:51:07;;;;;;;9.53;6.60;;;;;;;;;;5034480;28;20397;-52
2022/07/01 04:53:33;;;;;;;11.10;6.77;;;;;;;;;;5034810;28;20420;-52
2022/07/01 04:55:59;;;;;;;12.73;7.67;;;;;;;;;;5034574;28;20594;-52
2022/07/01 04:58:25;;;;;;;11.17;6.03;;;;;;;;;;5032554;28;20437;-53
2022/07/01 05:00:52;;;;;;;7.87;6.93;;;;;;;;;;5034279;28;20416;-52
2022/07/01 05:03:18;;;;;;;7.80;6.37;;;;;;;;;;5034105;28;20421;-52
2022/07/01 05:05:44;;;;;;;7.90;6.07;;;;;;;;;;5034166;28;20412;-52
2022/07/01 05:08:10;;;;;;;10.40;7.00;;;;;;;;;;5034561;28;20396;-52
2022/07/01 05:10:36;;;;;;;11.40;6.77;;;;;;;;;;5034191;28;20404;-52
2022/07/01 05:13:04;;;;;;;13.00;7.77;;;;;;;;;;5034299;28;21068;-52
2022/07/01 05:15:30;;;;;;;12.97;7.77;;;;;;;;;;5034271;28;20428;-52
2022/07/01 05:23:25;;;;;;;7.70;6.60;;;;;;;;;;5034872;28;20464;-52
2022/07/01 05:25:51;;;;;;;12.53;6.70;;;;;;;;;;5034389;28;20936;-53
2022/07/01 05:28:17;;;;;;;7.70;6.90;;;;;;;;;;5034262;28;20758;-52
2022/07/01 05:30:43;;;;;;;10.20;6.60;;;;;;;;;;5034066;28;20417;-52
2022/07/01 05:33:10;;;;;;;8.70;6.53;;;;;;;;;;5033707;28;20476;-52
2022/07/01 05:35:36;;;;;;;17.80;6.83;;;;;;;;;;5034105;28;21014;-52
2022/07/01 05:38:02;;;;;;;14.70;7.60;;;;;;;;;;5033635;28;20499;-52
2022/07/01 05:40:28;;;;;;;14.30;7.10;;;;;;;;;;5033513;28;20400;-52
2022/07/01 05:42:55;;;;;;;12.53;5.97;;;;;;;;;;5033458;28;20444;-52
2022/07/01 05:45:21;;;;;;;7.70;6.17;;;;;;;;;;5033240;28;20451;-52
2022/07/01 05:47:47;;;;;;;8.10;6.17;;;;;;;;;;5033595;28;20428;-52
2022/07/01 05:50:13;;;;;;;8.00;5.90;;;;;;;;;;5033281;28;20416;-53
2022/07/01 05:52:39;;;;;;;7.53;5.80;;;;;;;;;;5033100;28;20428;-52
2022/07/01 05:55:06;;;;;;;14.90;7.13;;;;;;;;;;5033738;28;20465;-52
2022/07/01 05:57:32;;;;;;;14.50;6.50;;;;;;;;;;5033460;28;20457;-52
2022/07/01 05:59:58;;;;;;;7.17;6.03;;;;;;;;;;5033750;28;20786;-52
2022/07/01 06:02:24;;;;;;;8.67;6.87;;;;;;;;;;5033250;28;20423;-52
2022/07/01 06:04:50;;;;;;;12.67;6.67;;;;;;;;;;5033762;28;20421;-52
2022/07/01 06:07:16;;;;;;;14.10;6.50;;;;;;;;;;5033391;28;20422;-52
2022/07/01 06:09:42;;;;;;;8.30;5.60;;;;;;;;;;5033667;28;20403;-52
2022/07/01 06:12:08;;;;;;;12.03;5.93;;;;;;;;;;5032885;28;20769;-52
2022/07/01 06:14:34;;;;;;;10.67;7.13;;;;;;;;;;5036650;28;20536;-52
2022/07/01 06:17:03;;;;;;;7.33;5.27;;;;;;;;;;5035165;28;20438;-53
2022/07/01 06:19:29;;;;;;;7.00;5.87;;;;;;;;;;5032855;28;20425;-52
2022/07/01 06:21:56;;;;;;;8.57;6.60;;;;;;;;;;5032623;28;20397;-52
2022/07/01 06:24:22;;;;;;;11.73;7.10;;;;;;;;;;5033167;28;20839;-52
2022/07/01 06:26:48;;;;;;;8.93;7.10;;;;;;;;;;5032969;28;20430;-52
2022/07/01 06:29:14;;;;;;;9.70;6.77;;;;;;;;;;5032719;28;20426;-52
2022/07/01 06:31:40;;;;;;;7.70;5.37;;;;;;;;;;5032378;28;20425;-52
2022/07/01 06:34:09;;;;;;;8.80;6.27;;;;;;;;;;5033402;28;20417;-55
2022/07/01 06:36:35;;;;;;;6.00;5.40;;;;;;;;;;5031657;28;20462;-52
2022/07/01 06:39:01;;;;;;;8.63;5.20;;;;;;;;;;5031596;28;20400;-52
2022/07/01 06:41:27;;;;;;;6.33;4.83;;;;;;;;;;5031163;28;20418;-52
2022/07/01 06:43:53;;;;;;;9.63;5.20;;;;;;;;;;5032485;28;20398;-52
2022/07/01 06:46:19;;;;;;;8.87;6.00;;;;;;;;;;5032474;28;21012;-52
2022/07/01 06:48:45;;;;;;;6.20;5.60;;;;;;;;;;5032580;28;20385;-52
2022/07/01 06:51:11;;;;;;;9.20;4.97;;;;;;;;;;5032415;28;20427;-52
2022/07/01 06:53:37;;;;;;;6.70;4.57;;;;;;;;;;5032693;28;20393;-52
2022/07/01 06:56:03;;;;;;;5.23;4.57;;;;;;;;;;5032222;28;20469;-52
2022/07/01 06:58:29;;;;;;;8.07;6.00;;;;;;;;;;5032327;28;20425;-52
2022/07/01 07:00:55;;;;;;;5.10;4.70;;;;;;;;;;5031946;28;20428;-52
2022/07/01 07:03:21;;;;;;;7.67;6.23;;;;;;;;;;5031739;28;20423;-53
2022/07/01 07:05:47;;;;;;;6.50;4.50;;;;;;;;;;5032089;28;20444;-53
2022/07/01 07:08:14;;;;;;;8.60;4.80;;;;;;;;;;5032147;28;20420;-53
2022/07/01 07:10:40;;;;;;;4.53;4.13;;;;;;;;;;5032265;28;20453;-52
2022/07/01 07:13:06;;;;;;;6.20;5.00;;;;;;;;;;5032174;28;20414;-52
2022/07/01 07:15:31;;;;;;;8.10;4.30;;;;;;;;;;5031784;28;20952;-52
2022/07/01 07:17:57;;;;;;;7.93;5.50;;;;;;;;;;5032017;28;20473;-52
2022/07/01 07:20:24;;;;;;;6.53;4.10;;;;;;;;;;5032104;28;20379;-53
2022/07/01 07:22:50;;;;;;;4.70;4.30;;;;;;;;;;5031880;28;20478;-53
2022/07/01 07:25:16;;;;;;;8.33;4.40;;;;;;;;;;5031870;28;20445;-53
2022/07/01 07:27:46;;;;;;;10.30;4.67;;;;;;;;;;5032131;28;20428;-53
2022/07/01 07:30:12;;;;;;;8.20;5.03;;;;;;;;;;5031530;28;20411;-53
2022/07/01 07:32:38;;;;;;;4.70;4.27;;;;;;;;;;5031999;28;20396;-52
2022/07/01 07:35:04;;;;;;;5.23;4.70;;;;;;;;;;5031463;28;20966;-52
2022/07/01 07:37:32;;;;;;;4.30;3.90;;;;;;;;;;5031385;28;20433;-52
2022/07/01 07:39:58;;;;;;;7.57;4.33;;;;;;;;;;5031472;28;20393;-53
2022/07/01 07:42:24;;;;;;;4.50;4.10;;;;;;;;;;5031630;28;20765;-52
2022/07/01 07:44:50;;;;;;;4.83;4.43;;;;;;;;;;5031836;28;20400;-52
2022/07/01 07:47:16;;;;;;;6.03;4.50;;;;;;;;;;5031815;28;20473;-53
2022/07/01 07:49:42;;;;;;;6.53;4.43;;;;;;;;;;5031404;28;20809;-53
2022/07/01 07:52:08;;;;;;;8.03;4.63;;;;;;;;;;5031296;28;20462;-52
2022/07/01 07:54:35;;;;;;;4.30;3.57;;;;;;;;;;5031617;28;20448;-53
2022/07/01 07:57:01;;;;;;;6.07;3.60;;;;;;;;;;5033892;28;20456;-53
2022/07/01 07:59:27;;;;;;;4.57;4.10;;;;;;;;;;5031264;28;20434;-53
2022/07/01 08:01:54;;;;;;;3.60;3.30;;;;;;;;;;5030931;28;20847;-53
2022/07/01 08:04:20;;;;;;;4.00;3.60;;;;;;;;;;5030563;28;20412;-53
2022/07/01 08:06:46;;;;;;;11.90;4.37;;;;;;;;;;5031202;28;20534;-52
2022/07/01 08:09:12;;;;;;;3.83;3.53;;;;;;;;;;5031758;28;20425;-53
2022/07/01 08:11:38;;;;;;;4.03;3.63;;;;;;;;;;5031357;28;20489;-53
2022/07/01 08:14:04;;;;;;;3.87;3.50;;;;;;;;;;5031037;28;20446;-53
2022/07/01 08:16:30;;;;;;;3.73;3.43;;;;;;;;;;5035211;28;20464;-53
2022/07/01 08:18:56;;;;;;;4.67;4.27;;;;;;;;;;5035326;28;20421;-52
2022/07/01 08:21:22;;;;;;;3.43;3.23;;;;;;;;;;5031128;28;20434;-53
2022/07/01 08:23:48;;;;;;;5.23;3.80;;;;;;;;;;5035125;28;20408;-53
2022/07/01 08:26:14;;;;;;;4.20;3.30;;;;;;;;;;5035461;28;20421;-53
2022/07/01 08:28:41;;;;;;;6.50;3.93;;;;;;;;;;5035523;28;20402;-53
2022/07/01 08:31:07;;;;;;;4.13;3.73;;;;;;;;;;5035272;28;20463;-53
2022/07/01 08:33:33;;;;;;;3.60;3.27;;;;;;;;;;5032876;28;20927;-53
2022/07/01 08:35:59;;;;;;;3.13;2.90;;;;;;;;;;5027915;28;20446;-53
2022/07/01 08:38:25;;;;;;;5.10;3.60;;;;;;;;;;5035300;28;20409;-53
2022/07/01 08:40:51;;;;;;;5.13;2.73;;;;;;;;;;5034550;28;20414;-53
2022/07/01 08:43:17;;;;;;;4.20;2.80;;;;;;;;;;5033974;28;20406;-53
2022/07/01 08:45:43;;;;;;;3.23;2.93;;;;;;;;;;5034580;28;20491;-53
2022/07/01 08:48:09;;;;;;;5.37;3.20;;;;;;;;;;5035079;28;20421;-53
2022/07/01 08:50:36;;;;;;;5.53;4.03;;;;;;;;;;5034566;28;20829;-53
2022/07/01 08:53:03;;;;;;;5.67;3.77;;;;;;;;;;5035017;28;20410;-53
2022/07/01 08:55:29;;;;;;;5.00;3.30;;;;;;;;;;5034036;28;20497;-53
2022/07/01 08:57:55;;;;;;;2.90;2.40;;;;;;;;;;5033632;28;20418;-53
2022/07/01 09:00:21;;;;;;;2.83;2.40;;;;;;;;;;5034579;28;20402;-54
2022/07/01 09:02:51;;;;;;;4.10;2.70;;;;;;;;;;5034759;28;20450;-54
2022/07/01 09:05:17;;;;;;;2.83;2.60;;;;;;;;;;5037450;28;20572;-54
2022/07/01 09:07:43;;;;;;;4.43;2.20;;;;;;;;;;5043129;28;20417;-53
2022/07/01 09:10:19;;;;;;;3.43;2.20;;;;;;;;;;5032734;28;20422;-53
2022/07/01 09:12:46;;;;;;;2.37;2.20;;;;;;;;;;5032638;28;20791;-53
2022/07/01 09:15:25;;;;;;;2.40;2.30;;;;;;;;;;5032908;28;20964;-52
2022/07/01 09:17:51;;;;;;;4.97;2.87;;;;;;;;;;5034211;28;20471;-53
2022/07/01 09:20:24;;;;;;;3.37;2.43;;;;;;;;;;5034076;28;20771;-53
2022/07/01 09:22:58;;;;;;;2.60;2.40;;;;;;;;;;5034087;28;20402;-52
2022/07/01 09:25:31;;;;;;;3.30;2.10;;;;;;;;;;5034311;28;20414;-53
2022/07/01 09:28:06;;;;;;;3.83;2.30;;;;;;;;;;5033369;28;20411;-52
2022/07/01 09:30:35;;;;;;;2.27;2.03;;;;;;;;;;5033996;28;20390;-53
2022/07/01 09:33:07;;;;;;;6.30;2.77;;;;;;;;;;5033744;28;20419;-52
2022/07/01 09:35:34;;;;;;;4.60;2.63;;;;;;;;;;5034004;28;20413;-52
2022/07/01 09:38:00;;;;;;;2.90;2.70;;;;;;;;;;5033920;28;20424;-52
2022/07/01 09:40:45;;;;;;;3.50;2.53;;;;;;;;;;5033873;28;20417;-53
2022/07/01 09:43:14;;;;;;;6.50;2.70;;;;;;;;;;5033537;28;20495;-53
2022/07/01 09:45:49;;;;;;;2.70;2.47;;;;;;;;;;5033983;28;20451;-52
2022/07/01 09:48:15;;;;;;;5.13;2.50;;;;;;;;;;5033696;28;20456;-52
2022/07/01 09:50:41;;;;;;;4.20;2.77;;;;;;;;;;5033671;28;20434;-52
2022/07/01 09:53:07;;;;;;;4.30;2.87;;;;;;;;;;5033632;28;20418;-52
2022/07/01 09:55:34;;;;;;;3.47;2.53;;;;;;;;;;5033638;28;20497;-52
2022/07/01 09:58:00;;;;;;;3.30;3.00;;;;;;;;;;5033215;28;20452;-52
2022/07/01 10:00:27;;;;;;;4.47;3.13;;;;;;;;;;5022502;28;20418;-52
2022/07/01 10:02:55;;;;;;;2.33;2.13;;;;;;;;;;5033448;28;20405;-52
2022/07/01 10:05:24;;;;;;;2.20;2.10;;;;;;;;;;5033156;28;20439;-52
2022/07/01 10:08:00;;;;;;;2.80;2.17;;;;;;;;;;5033346;28;20956;-52
2022/07/01 10:10:42;;;;;;;3.30;2.13;;;;;;;;;;5033086;28;20466;-52
2022/07/01 10:13:09;;;;;;;3.40;2.47;;;;;;;;;;5033255;28;20427;-52
2022/07/01 10:15:35;;;;;;;3.10;2.53;;;;;;;;;;5033282;28;20815;-52
2022/07/01 10:18:02;;;;;;;2.07;1.97;;;;;;;;;;5033329;28;20452;-52
2022/07/01 10:20:30;;;;;;;2.37;2.17;;;;;;;;;;5033055;28;20831;-52
2022/07/01 10:23:06;;;;;;;6.03;2.30;;;;;;;;;;5032602;28;20831;-54
2022/07/01 10:25:49;;;;;;;2.50;2.30;;;;;;;;;;5032799;28;20528;-53
2022/07/01 10:28:16;;;;;;;3.00;1.83;;;;;;;;;;5033296;28;20486;-53
2022/07/01 10:30:51;;;;;;;2.43;2.20;;;;;;;;;;5032624;28;20426;-53
2022/07/01 10:33:36;;;;;;;2.17;1.97;;;;;;;;;;5033077;28;20398;-53
2022/07/01 10:36:08;;;;;;;2.40;2.17;;;;;;;;;;5032624;28;20958;-53
2022/07/01 10:38:34;;;;;;;2.30;2.10;;;;;;;;;;5032002;28;20406;-53
2022/07/01 10:41:10;;;;;;;1.70;1.60;;;;;;;;;;5035994;28;20833;-53
2022/07/01 10:43:37;;;;;;;6.20;2.03;;;;;;;;;;5051770;28;20397;-54
2022/07/01 10:46:04;;;;;;;2.73;1.90;;;;;;;;;;5042255;28;20450;-54
2022/07/01 10:48:34;;;;;;;2.67;2.00;;;;;;;;;;5037955;28;20806;-54
2022/07/01 10:51:01;;;;;;;5.37;2.13;;;;;;;;;;5032026;28;20452;-54
2022/07/01 10:53:46;;;;;;;2.27;1.73;;;;;;;;;;5032172;28;20429;-54
2022/07/01 10:56:16;;;;;;;2.80;1.60;;;;;;;;;;5032513;28;20532;-53
2022/07/01 10:58:42;;;;;;;2.30;1.67;;;;;;;;;;5032423;28;20421;-54
2022/07/01 11:01:09;;;;;;;1.63;1.53;;;;;;;;;;5031871;28;20430;-53
2022/07/01 11:03:36;;;;;;;1.50;1.40;;;;;;;;;;5032736;28;20737;-53
2022/07/01 11:06:03;;;;;;;2.90;1.80;;;;;;;;;;5032545;28;20428;-53
2022/07/01 11:08:29;;;;;;;1.83;1.60;;;;;;;;;;5032651;28;20411;-53
2022/07/01 11:10:57;;;;;;;2.00;1.47;;;;;;;;;;5031398;28;20489;-53
2022/07/01 11:13:23;;;;;;;2.53;1.40;;;;;;;;;;5032282;28;20500;-53
2022/07/01 11:15:50;;;;;;;2.80;1.70;;;;;;;;;;5031297;28;20954;-53
2022/07/01 11:18:17;;;;;;;1.70;1.60;;;;;;;;;;5032470;28;20402;-53
2022/07/01 11:20:43;;;;;;;1.17;1.03;;;;;;;;;;5031784;28;20444;-54
2022/07/01 11:23:09;;;;;;;2.83;2.00;;;;;;;;;;5032360;28;20490;-53
2022/07/01 11:25:35;;;;;;;1.43;1.30;;;;;;;;;;5031776;28;20520;-53
2022/07/01 11:28:01;;;;;;;2.23;1.30;;;;;;;;;;5031564;28;20391;-53
2022/07/01 11:30:27;;;;;;;3.20;1.30;;;;;;;;;;5031347;28;20941;-53
2022/07/01 11:32:56;;;;;;;1.77;1.10;;;;;;;;;;5032498;28;20788;-53
2022/07/01 11:41:10;;;;;;;1.50;0.90;;;;;;;;;;5031807;28;20971;-54
2022/07/01 11:43:40;;;;;;;2.30;1.97;;;;;;;;;;5030986;28;20402;-54
2022/07/01 11:46:07;;;;;;;1.70;0.80;;;;;;;;;;5031308;28;20426;-54
2022/07/01 11:48:34;;;;;;;2.10;1.00;;;;;;;;;;5032029;28;20386;-54
2022/07/01 11:51:01;;;;;;;1.93;1.10;;;;;;;;;;5031041;28;20402;-54
2022/07/01 11:53:27;;;;;;;2.03;1.23;;;;;;;;;;5031919;28;20890;-53
2022/07/01 11:55:53;;;;;;;1.77;0.90;;;;;;;;;;5031382;28;20991;-53
2022/07/01 11:58:19;;;;;;;4.30;1.00;;;;;;;;;;5031888;28;20485;-53
2022/07/01 12:00:45;;;;;;;2.40;1.23;;;;;;;;;;5031042;28;20415;-53
2022/07/01 12:03:11;;;;;;;1.97;0.90;;;;;;;;;;5031703;28;20410;-53
2022/07/01 12:05:38;;;;;;;1.93;1.20;;;;;;;;;;5031200;28;20438;-54
2022/07/01 12:08:04;;;;;;;2.50;1.10;;;;;;;;;;5031789;28;20783;-54
2022/07/01 12:10:31;;;;;;;3.43;1.40;;;;;;;;;;5030847;28;20418;-53
2022/07/01 12:12:57;;;;;;;2.00;1.50;;;;;;;;;;5031696;28;20906;-54
2022/07/01 12:15:23;;;;;;;2.50;1.33;;;;;;;;;;5030790;28;20559;-54
2022/07/01 12:17:49;;;;;;;2.50;1.20;;;;;;;;;;5031651;28;20454;-53
2022/07/01 12:20:15;;;;;;;2.10;1.10;;;;;;;;;;5030978;28;20491;-54
2022/07/01 12:22:41;;;;;;;1.47;1.37;;;;;;;;;;5031569;28;20873;-54
2022/07/01 12:25:08;;;;;;;2.07;1.10;;;;;;;;;;5031184;28;20458;-54
2022/07/01 12:27:37;;;;;;;1.50;1.10;;;;;;;;;;5031559;28;20470;-53
2022/07/01 12:30:04;;;;;;;1.20;1.10;;;;;;;;;;5030721;28;20414;-54
2022/07/01 12:32:31;;;;;;;1.63;1.13;;;;;;;;;;5031406;28;20403;-53
2022/07/01 12:34:57;;;;;;;1.10;1.00;;;;;;;;;;5031541;28;20525;-53
2022/07/01 12:37:26;;;;;;;3.53;1.40;;;;;;;;;;5031439;28;20553;-53
2022/07/01 12:39:53;;;;;;;1.63;1.10;;;;;;;;;;5030995;28;20456;-53
2022/07/01 12:42:28;;;;;;;1.60;1.40;;;;;;;;;;5030547;28;20786;-54
2022/07/01 12:44:55;;;;;;;1.90;1.13;;;;;;;;;;5030829;28;20438;-54
2022/07/01 12:47:25;;;;;;;1.50;1.30;;;;;;;;;;5031284;28;20410;-54
2022/07/01 12:49:51;;;;;;;1.10;1.00;;;;;;;;;;5030904;28;20492;-56
2022/07/01 12:52:24;;;;;;;1.10;1.00;;;;;;;;;;5031088;28;20417;-56
2022/07/01 12:54:50;;;;;;;1.50;0.93;;;;;;;;;;5030546;28;20438;-55
2022/07/01 12:57:16;;;;;;;1.60;1.20;;;;;;;;;;5031025;28;20834;-54
2022/07/01 12:59:42;;;;;;;2.20;1.67;;;;;;;;;;5030833;28;20440;-55
2022/07/01 13:02:08;;;;;;;1.50;1.07;;;;;;;;;;5032567;28;20402;-54
2022/07/01 13:04:34;;;;;;;5.37;1.20;;;;;;;;;;5037990;28;20445;-53
2022/07/01 13:07:00;;;;;;;10.23;1.20;;;;;;;;;;5035486;28;20453;-52
2022/07/01 13:09:26;;;;;;;1.40;1.20;;;;;;;;;;5034745;28;20925;-52
2022/07/01 13:11:52;;;;;;;1.00;0.90;;;;;;;;;;5034225;28;20425;-53
2022/07/01 13:14:18;;;;;;;2.60;1.10;;;;;;;;;;5033660;28;20972;-53
2022/07/01 13:16:44;;;;;;;1.50;1.10;;;;;;;;;;5034291;28;20458;-52
2022/07/01 13:19:10;;;;;;;1.53;1.00;;;;;;;;;;5033758;28;20410;-52
2022/07/01 13:21:36;;;;;;;1.47;1.00;;;;;;;;;;5034089;28;20402;-53
2022/07/01 13:24:02;;;;;;;2.57;1.20;;;;;;;;;;5034048;28;20478;-53
2022/07/01 13:26:28;;;;;;;2.47;1.03;;;;;;;;;;5041626;28;20504;-54
2022/07/01 13:28:54;;;;;;;1.70;1.40;;;;;;;;;;5042339;28;20990;-53
2022/07/01 13:31:20;;;;;;;1.00;0.90;;;;;;;;;;5034106;28;20412;-52
2022/07/01 13:33:46;;;;;;;1.57;1.23;;;;;;;;;;5033933;28;20430;-53
2022/07/01 13:36:12;;;;;;;1.80;1.10;;;;;;;;;;5034209;28;20461;-53
2022/07/01 13:38:38;;;;;;;3.83;1.23;;;;;;;;;;5033171;28;20476;-52
2022/07/01 13:41:04;;;;;;;1.90;1.03;;;;;;;;;;5033940;28;20418;-53
2022/07/01 13:43:30;;;;;;;1.63;1.10;;;;;;;;;;5033867;28;20403;-53
2022/07/01 13:45:56;;;;;;;1.00;0.90;;;;;;;;;;5033369;28;20430;-53
2022/07/01 13:48:22;;;;;;;1.90;1.30;;;;;;;;;;5034058;28;20418;-53
2022/07/01 13:50:48;;;;;;;3.37;1.00;;;;;;;;;;5033751;28;20489;-53
2022/07/01 13:53:14;;;;;;;2.13;0.97;;;;;;;;;;5033530;28;20772;-53
2022/07/01 13:55:40;;;;;;;1.63;1.20;;;;;;;;;;5033690;28;20469;-54
2022/07/01 13:58:06;;;;;;;1.53;1.10;;;;;;;;;;5033608;28;20421;-52
2022/07/01 14:00:32;;;;;;;1.80;0.90;;;;;;;;;;5033544;28;20421;-52
2022/07/01 14:02:58;;;;;;;2.30;0.90;;;;;;;;;;5043397;28;20406;-52
2022/07/01 14:05:24;;;;;;;1.10;1.00;;;;;;;;;;5044317;28;20937;-53
2022/07/01 14:07:51;;;;;;;4.20;1.10;;;;;;;;;;5033078;28;20840;-53
2022/07/01 14:10:17;;;;;;;1.07;0.97;;;;;;;;;;5033110;28;20430;-53
2022/07/01 14:12:44;;;;;;;2.80;1.00;;;;;;;;;;5033272;28;20414;-53
2022/07/01 14:15:10;;;;;;;2.43;1.07;;;;;;;;;;5032622;28;20455;-53
2022/07/01 14:17:37;;;;;;;1.10;0.70;;;;;;;;;;5036028;28;20501;-53
2022/07/01 14:20:03;;;;;;;3.80;0.93;;;;;;;;;;5031679;28;20402;-53
2022/07/01 14:22:29;;;;;;;1.77;1.00;;;;;;;;;;5031495;28;20402;-54
2022/07/01 14:24:55;;;;;;;2.60;1.00;;;;;;;;;;5032584;28;20575;-55
2022/07/01 14:27:21;;;;;;;1.33;0.83;;;;;;;;;;5033425;28;20430;-55
2022/07/01 14:29:47;;;;;;;0.90;0.80;;;;;;;;;;5033120;28;20403;-55
2022/07/01 14:32:13;;;;;;;2.60;0.87;;;;;;;;;;5032846;28;20422;-54
2022/07/01 14:34:39;;;;;;;1.40;0.83;;;;;;;;;;5032933;28;20418;-52
2022/07/01 14:37:05;;;;;;;2.57;0.90;;;;;;;;;;5032403;28;20553;-53
2022/07/01 14:39:31;;;;;;;1.10;0.90;;;;;;;;;;5038761;28;20414;-53
2022/07/01 14:41:57;;;;;;;1.97;0.90;;;;;;;;;;5032650;28;20456;-53
2022/07/01 14:44:24;;;;;;;1.53;0.90;;;;;;;;;;5032831;28;20418;-53
2022/07/01 14:46:51;;;;;;;3.27;0.93;;;;;;;;;;5033026;28;20414;-53
2022/07/01 14:49:17;;;;;;;0.90;0.80;;;;;;;;;;5032873;28;20482;-53
2022/07/01 14:51:43;;;;;;;3.23;0.90;;;;;;;;;;5032494;28;20417;-53
2022/07/01 14:54:09;;;;;;;2.70;0.90;;;;;;;;;;5032252;28;20488;-53
2022/07/01 14:56:35;;;;;;;1.00;0.73;;;;;;;;;;5032778;28;20462;-54